createdAt,value
2022-12-19T00:00:05.007Z,10.35
2022-12-19T00:01:18.582Z,9.57
2022-12-19T00:02:20.826Z,9.73
2022-12-19T00:03:24.008Z,10.13
2022-12-19T00:04:26.316Z,9.88
2022-12-19T00:05:29.373Z,9.05
2022-12-19T00:06:31.639Z,10.10
2022-12-19T00:07:34.669Z,8.75
2022-12-19T00:08:36.739Z,8.57
2022-12-19T00:09:39.959Z,8.65
2022-12-19T00:10:42.256Z,8.25
2022-12-19T00:11:45.281Z,8.50
2022-12-19T00:12:47.322Z,7.85
2022-12-19T00:13:50.701Z,7.68
2022-12-19T00:14:52.785Z,7.28
2022-12-19T00:16:01.128Z,7.43
2022-12-19T00:17:03.222Z,7.18
2022-12-19T00:18:06.681Z,6.65
2022-12-19T00:19:11.480Z,6.50
2022-12-19T00:20:13.538Z,6.65
2022-12-19T00:21:22.917Z,6.32
2022-12-19T00:22:25.411Z,6.15
2022-12-19T00:23:30.579Z,6.65
2022-12-19T00:24:33.071Z,6.38
2022-12-19T00:25:36.144Z,6.15
2022-12-19T00:26:42.661Z,5.50
2022-12-19T00:27:44.715Z,5.13
2022-12-19T00:28:49.596Z,4.90
2022-12-19T00:29:51.624Z,5.13
2022-12-19T00:30:55.227Z,17.05
2022-12-19T00:32:01.103Z,12.90
2022-12-19T00:33:03.404Z,11.40
2022-12-19T00:34:06.407Z,11.15
2022-12-19T00:35:09.166Z,8.80
2022-12-19T00:36:14.204Z,5.93
2022-12-19T00:37:19.111Z,5.95
2022-12-19T00:38:22.338Z,5.90
2022-12-19T00:39:24.502Z,5.30
2022-12-19T00:40:27.528Z,4.97
2022-12-19T00:41:31.100Z,5.15
2022-12-19T00:42:34.190Z,5.15
2022-12-19T00:43:36.887Z,4.65
2022-12-19T00:44:39.925Z,5.03
2022-12-19T00:45:42.090Z,5.72
2022-12-19T00:46:47.412Z,5.50
2022-12-19T00:47:56.516Z,5.53
2022-12-19T00:48:59.847Z,5.30
2022-12-19T00:50:02.033Z,5.43
2022-12-19T00:51:07.037Z,4.70
2022-12-19T00:52:09.463Z,4.47
2022-12-19T00:53:12.580Z,4.03
2022-12-19T00:54:33.861Z,4.55
2022-12-19T00:55:38.578Z,4.30
2022-12-19T00:56:41.637Z,4.90
2022-12-19T00:57:43.725Z,4.43
2022-12-19T00:58:47.820Z,4.78
2022-12-19T00:59:49.923Z,4.97
2022-12-19T01:00:55.462Z,4.53
2022-12-19T01:01:57.788Z,4.50
2022-12-19T01:03:02.412Z,4.28
2022-12-19T01:04:28.936Z,4.78
2022-12-19T01:05:32.652Z,3.55
2022-12-19T01:06:35.275Z,3.88
2022-12-19T01:07:38.958Z,4.03
2022-12-19T01:08:41.036Z,4.47
2022-12-19T01:09:44.112Z,4.03
2022-12-19T01:10:48.746Z,4.30
2022-12-19T01:12:05.727Z,4.18
2022-12-19T01:13:08.805Z,4.35
2022-12-19T01:14:11.445Z,4.03
2022-12-19T01:15:18.886Z,4.10
2022-12-19T01:16:20.971Z,3.90
2022-12-19T01:17:24.306Z,3.70
2022-12-19T01:18:30.177Z,4.78
2022-12-19T01:19:33.208Z,4.30
2022-12-19T01:20:38.378Z,4.15
2022-12-19T01:21:40.496Z,4.70
2022-12-19T01:22:43.795Z,4.85
2022-12-19T01:23:48.166Z,5.88
2022-12-19T01:24:51.224Z,11.43
2022-12-19T01:25:54.410Z,16.98
2022-12-19T01:26:58.790Z,18.27
2022-12-19T01:28:02.297Z,17.27
2022-12-19T01:29:08.187Z,17.08
2022-12-19T01:30:11.849Z,17.73
2022-12-19T01:31:15.505Z,18.58
2022-12-19T01:32:18.413Z,17.83
2022-12-19T01:33:21.922Z,17.20
2022-12-19T01:34:26.233Z,17.15
2022-12-19T01:35:29.749Z,18.35
2022-12-19T01:36:31.889Z,17.42
2022-12-19T01:37:37.122Z,17.10
2022-12-19T01:38:39.365Z,17.42
2022-12-19T01:39:43.308Z,16.90
2022-12-19T01:40:51.553Z,18.23
2022-12-19T01:41:56.063Z,16.92
2022-12-19T01:42:58.194Z,17.30
2022-12-19T01:44:03.073Z,15.68
2022-12-19T01:45:33.143Z,17.33
2022-12-19T01:46:40.153Z,16.80
2022-12-19T01:47:49.513Z,16.23
2022-12-19T01:48:57.475Z,13.63
2022-12-19T01:50:02.399Z,15.60
2022-12-19T01:51:09.020Z,12.27
2022-12-19T01:52:14.429Z,11.15
2022-12-19T01:53:28.667Z,13.30
2022-12-19T01:54:34.645Z,10.15
2022-12-19T01:55:39.396Z,10.52
2022-12-19T01:56:46.990Z,6.90
2022-12-19T01:57:50.082Z,6.60
2022-12-19T01:59:06.021Z,5.90
2022-12-19T02:00:13.971Z,4.72
2022-12-19T02:01:17.576Z,3.75
2022-12-19T02:02:25.625Z,3.75
2022-12-19T02:03:29.214Z,3.25
2022-12-19T02:04:33.444Z,3.78
2022-12-19T02:05:37.917Z,3.05
2022-12-19T02:06:42.428Z,2.72
2022-12-19T02:07:45.061Z,2.95
2022-12-19T02:08:49.813Z,3.22
2022-12-19T02:09:57.343Z,3.13
2022-12-19T02:11:09.634Z,2.88
2022-12-19T02:12:14.269Z,3.38
2022-12-19T02:13:17.556Z,2.80
2022-12-19T02:14:20.160Z,2.78
2022-12-19T02:15:23.519Z,2.60
2022-12-19T02:16:35.807Z,2.95
2022-12-19T02:17:49.220Z,2.75
2022-12-19T02:19:04.439Z,2.83
2022-12-19T02:20:46.142Z,2.95
2022-12-19T02:21:57.249Z,2.80
2022-12-19T02:23:23.091Z,2.80
2022-12-19T02:24:54.679Z,2.80
2022-12-19T02:26:19.817Z,2.83
2022-12-19T02:27:58.784Z,2.70
2022-12-19T02:29:19.944Z,2.63
2022-12-19T02:30:49.026Z,3.17
2022-12-19T02:31:57.425Z,2.83
2022-12-19T02:33:08.512Z,2.65
2022-12-19T02:34:20.680Z,3.05
2022-12-19T02:35:40.964Z,3.10
2022-12-19T02:36:50.691Z,2.42
2022-12-19T02:37:59.155Z,2.50
2022-12-19T02:39:08.287Z,2.97
2022-12-19T02:40:17.362Z,3.00
2022-12-19T02:41:24.762Z,3.00
2022-12-19T02:42:30.718Z,2.85
2022-12-19T02:43:39.849Z,2.95
2022-12-19T02:44:47.028Z,2.90
2022-12-19T02:45:53.832Z,2.78
2022-12-19T02:46:58.986Z,2.97
2022-12-19T02:48:08.809Z,2.42
2022-12-19T02:49:14.245Z,2.95
2022-12-19T02:50:23.626Z,2.67
2022-12-19T02:51:27.569Z,3.00
2022-12-19T02:52:48.633Z,2.92
2022-12-19T02:53:52.467Z,2.75
2022-12-19T02:54:57.931Z,2.22
2022-12-19T02:56:16.729Z,3.17
2022-12-19T02:57:28.424Z,3.17
2022-12-19T02:58:46.929Z,2.78
2022-12-19T03:00:02.934Z,2.95
2022-12-19T03:01:20.252Z,2.67
2022-12-19T03:02:32.949Z,2.60
2022-12-19T03:03:48.457Z,2.83
2022-12-19T03:04:59.692Z,2.90
2022-12-19T03:06:08.647Z,2.80
2022-12-19T03:07:18.623Z,2.50
2022-12-19T03:08:26.451Z,2.85
2022-12-19T03:09:37.306Z,2.85
2022-12-19T03:10:43.903Z,3.00
2022-12-19T03:11:49.404Z,2.72
2022-12-19T03:12:56.607Z,2.72
2022-12-19T03:14:02.263Z,2.70
2022-12-19T03:15:06.687Z,2.97
2022-12-19T03:16:12.194Z,3.22
2022-12-19T03:17:15.367Z,3.38
2022-12-19T03:18:21.302Z,3.08
2022-12-19T03:19:25.581Z,2.88
2022-12-19T03:20:36.039Z,2.88
2022-12-19T03:21:42.282Z,3.15
2022-12-19T03:22:44.772Z,2.50
2022-12-19T03:23:49.504Z,3.03
2022-12-19T03:24:51.730Z,2.65
2022-12-19T03:26:02.624Z,3.30
2022-12-19T03:27:11.335Z,2.80
2022-12-19T03:28:22.210Z,2.72
2022-12-19T03:29:30.513Z,2.65
2022-12-19T03:30:37.022Z,3.78
2022-12-19T03:31:42.966Z,2.78
2022-12-19T03:32:48.963Z,2.92
2022-12-19T03:33:55.632Z,2.70
2022-12-19T03:35:02.642Z,2.63
2022-12-19T03:36:10.322Z,2.60
2022-12-19T03:37:19.462Z,3.03
2022-12-19T03:38:22.758Z,2.80
2022-12-19T03:39:27.582Z,2.60
2022-12-19T03:40:32.668Z,2.80
2022-12-19T03:41:54.391Z,2.92
2022-12-19T03:43:11.253Z,2.97
2022-12-19T03:44:15.687Z,3.03
2022-12-19T03:45:22.957Z,2.58
2022-12-19T03:46:28.779Z,2.53
2022-12-19T03:47:37.401Z,2.80
2022-12-19T03:48:44.084Z,2.75
2022-12-19T03:49:47.336Z,3.00
2022-12-19T03:50:59.059Z,2.75
2022-12-19T03:52:14.417Z,2.95
2022-12-19T03:53:34.430Z,2.90
2022-12-19T03:54:40.524Z,2.90
2022-12-19T03:55:48.270Z,3.03
2022-12-19T03:56:56.500Z,2.80
2022-12-19T03:58:03.764Z,3.00
2022-12-19T03:59:10.101Z,2.78
2022-12-19T04:00:16.072Z,2.40
2022-12-19T04:01:19.368Z,2.85
2022-12-19T04:02:24.400Z,2.30
2022-12-19T04:03:29.989Z,2.60
2022-12-19T04:04:37.089Z,3.00
2022-12-19T04:05:41.495Z,3.25
2022-12-19T04:06:46.595Z,3.63
2022-12-19T04:07:51.066Z,3.00
2022-12-19T04:08:54.243Z,3.45
2022-12-19T04:09:58.119Z,3.10
2022-12-19T04:11:05.854Z,2.97
2022-12-19T04:12:10.518Z,3.20
2022-12-19T04:13:17.553Z,2.78
2022-12-19T04:14:24.061Z,3.25
2022-12-19T04:15:35.646Z,2.75
2022-12-19T04:16:44.924Z,2.88
2022-12-19T04:17:51.893Z,3.45
2022-12-19T04:18:59.376Z,2.80
2022-12-19T04:20:05.477Z,3.28
2022-12-19T04:21:12.919Z,2.88
2022-12-19T04:22:22.008Z,2.90
2022-12-19T04:23:32.553Z,2.83
2022-12-19T04:24:38.606Z,3.08
2022-12-19T04:25:43.442Z,3.35
2022-12-19T04:26:50.420Z,3.60
2022-12-19T04:27:57.357Z,2.88
2022-12-19T04:29:05.738Z,3.10
2022-12-19T04:30:09.375Z,2.95
2022-12-19T04:31:15.291Z,3.20
2022-12-19T04:32:18.304Z,3.25
2022-12-19T04:33:21.673Z,2.97
2022-12-19T04:34:25.218Z,3.78
2022-12-19T04:35:28.293Z,3.33
2022-12-19T04:36:31.489Z,3.20
2022-12-19T04:37:33.661Z,2.95
2022-12-19T04:38:36.884Z,3.22
2022-12-19T04:39:39.151Z,3.25
2022-12-19T04:40:42.320Z,3.17
2022-12-19T04:41:44.374Z,2.83
2022-12-19T04:42:47.453Z,3.30
2022-12-19T04:43:49.747Z,3.05
2022-12-19T04:44:52.831Z,3.00
2022-12-19T04:45:57.561Z,3.28
2022-12-19T04:47:00.948Z,4.47
2022-12-19T04:48:03.259Z,2.83
2022-12-19T04:49:06.479Z,2.78
2022-12-19T04:50:10.879Z,2.70
2022-12-19T04:51:14.038Z,3.20
2022-12-19T04:52:16.372Z,2.85
2022-12-19T04:53:19.503Z,3.05
2022-12-19T04:54:21.937Z,2.95
2022-12-19T04:55:25.067Z,2.90
2022-12-19T04:56:27.157Z,3.03
2022-12-19T04:57:30.900Z,2.50
2022-12-19T04:58:33.472Z,2.92
2022-12-19T04:59:36.569Z,2.90
2022-12-19T05:00:38.786Z,3.03
2022-12-19T05:01:41.964Z,2.60
2022-12-19T05:02:44.552Z,3.20
2022-12-19T05:03:52.683Z,2.80
2022-12-19T05:04:56.800Z,3.00
2022-12-19T05:06:09.145Z,2.75
2022-12-19T05:07:11.189Z,2.80
2022-12-19T05:08:14.246Z,3.10
2022-12-19T05:09:16.293Z,2.85
2022-12-19T05:10:19.623Z,2.95
2022-12-19T05:11:21.778Z,2.95
2022-12-19T05:12:24.811Z,3.03
2022-12-19T05:13:26.893Z,2.85
2022-12-19T05:14:29.937Z,2.70
2022-12-19T05:15:32.899Z,2.63
2022-12-19T05:16:36.072Z,2.97
2022-12-19T05:17:38.314Z,2.60
2022-12-19T05:18:41.355Z,2.88
2022-12-19T05:19:43.585Z,2.83
2022-12-19T05:20:49.619Z,3.05
2022-12-19T05:21:53.029Z,2.70
2022-12-19T05:22:56.107Z,2.92
2022-12-19T05:23:58.174Z,2.72
2022-12-19T05:25:01.214Z,2.72
2022-12-19T05:26:04.916Z,2.80
2022-12-19T05:27:08.208Z,2.88
2022-12-19T05:28:10.268Z,2.53
2022-12-19T05:29:13.369Z,2.50
2022-12-19T05:30:15.531Z,2.72
2022-12-19T05:31:20.781Z,2.70
2022-12-19T05:32:22.882Z,2.90
2022-12-19T05:33:25.887Z,2.63
2022-12-19T05:34:29.744Z,2.53
2022-12-19T05:35:32.818Z,3.22
2022-12-19T05:36:35.252Z,3.25
2022-12-19T05:37:39.666Z,2.65
2022-12-19T05:38:41.979Z,2.78
2022-12-19T05:39:45.109Z,3.40
2022-12-19T05:40:47.130Z,2.65
2022-12-19T05:41:50.209Z,3.10
2022-12-19T05:42:52.316Z,3.00
2022-12-19T05:43:56.743Z,2.42
2022-12-19T05:44:58.801Z,2.85
2022-12-19T05:46:01.865Z,2.97
2022-12-19T05:47:03.972Z,2.95
2022-12-19T05:48:07.413Z,3.17
2022-12-19T05:49:11.623Z,2.38
2022-12-19T05:50:15.130Z,3.10
2022-12-19T05:51:17.397Z,2.53
2022-12-19T05:52:20.483Z,2.70
2022-12-19T05:53:26.138Z,2.85
2022-12-19T05:54:29.530Z,2.97
2022-12-19T05:55:31.829Z,2.85
2022-12-19T05:56:34.888Z,2.88
2022-12-19T05:57:37.198Z,2.60
2022-12-19T05:58:42.056Z,2.70
2022-12-19T05:59:44.207Z,2.95
2022-12-19T06:00:47.255Z,3.00
2022-12-19T06:01:49.422Z,2.97
2022-12-19T06:02:52.661Z,2.63
2022-12-19T06:03:55.701Z,2.45
2022-12-19T06:04:58.793Z,2.38
2022-12-19T06:06:02.865Z,2.50
2022-12-19T06:07:06.460Z,2.70
2022-12-19T06:08:08.561Z,2.85
2022-12-19T06:09:12.970Z,2.63
2022-12-19T06:10:15.232Z,2.83
2022-12-19T06:11:18.290Z,2.85
2022-12-19T06:12:20.363Z,2.80
2022-12-19T06:13:25.160Z,2.53
2022-12-19T06:14:27.353Z,2.78
2022-12-19T06:15:30.375Z,3.28
2022-12-19T06:16:32.474Z,3.30
2022-12-19T06:17:35.628Z,2.60
2022-12-19T06:18:42.984Z,3.20
2022-12-19T06:19:47.909Z,3.00
2022-12-19T06:20:56.885Z,2.85
2022-12-19T06:21:59.983Z,3.17
2022-12-19T06:23:02.188Z,2.80
2022-12-19T06:24:05.831Z,3.10
2022-12-19T06:25:10.012Z,3.80
2022-12-19T06:26:19.165Z,3.63
2022-12-19T06:27:23.149Z,3.10
2022-12-19T06:28:26.574Z,3.70
2022-12-19T06:29:31.198Z,2.83
2022-12-19T06:30:36.441Z,2.90
2022-12-19T06:31:39.495Z,3.08
2022-12-19T06:32:41.667Z,2.80
2022-12-19T06:33:45.104Z,3.03
2022-12-19T06:35:03.663Z,2.90
2022-12-19T06:36:09.456Z,3.00
2022-12-19T06:37:12.395Z,2.70
2022-12-19T06:38:15.497Z,3.60
2022-12-19T06:39:18.562Z,3.13
2022-12-19T06:40:36.960Z,3.20
2022-12-19T06:41:57.424Z,3.13
2022-12-19T06:42:59.482Z,2.90
2022-12-19T06:44:04.081Z,3.40
2022-12-19T06:45:08.245Z,3.00
2022-12-19T06:46:10.671Z,3.42
2022-12-19T06:47:13.908Z,3.90
2022-12-19T06:48:16.302Z,3.20
2022-12-19T06:49:19.401Z,3.30
2022-12-19T06:50:21.427Z,3.80
2022-12-19T06:51:24.883Z,3.35
2022-12-19T06:52:27.913Z,3.72
2022-12-19T06:53:30.448Z,3.40
2022-12-19T06:54:33.643Z,3.40
2022-12-19T06:55:37.953Z,3.30
2022-12-19T06:56:42.739Z,3.10
2022-12-19T06:57:46.564Z,3.13
2022-12-19T06:58:50.174Z,3.60
2022-12-19T06:59:53.177Z,3.30
2022-12-19T07:00:56.862Z,3.17
2022-12-19T07:02:03.813Z,3.38
2022-12-19T07:03:09.294Z,3.40
2022-12-19T07:04:16.604Z,3.40
2022-12-19T07:05:20.133Z,3.10
2022-12-19T07:06:23.267Z,3.13
2022-12-19T07:07:26.329Z,3.37
2022-12-19T07:08:29.587Z,3.70
2022-12-19T07:09:34.747Z,3.55
2022-12-19T07:10:39.246Z,3.57
2022-12-19T07:11:41.319Z,3.30
2022-12-19T07:12:44.343Z,8.63
2022-12-19T07:13:46.421Z,12.50
2022-12-19T07:14:53.292Z,9.80
2022-12-19T07:16:00.025Z,9.30
2022-12-19T07:17:04.157Z,10.80
2022-12-19T07:18:09.093Z,11.83
2022-12-19T07:19:12.572Z,12.02
2022-12-19T07:20:15.715Z,10.20
2022-12-19T07:21:19.002Z,10.00
2022-12-19T07:22:22.193Z,10.35
2022-12-19T07:23:24.424Z,10.55
2022-12-19T07:24:27.555Z,10.40
2022-12-19T07:25:30.657Z,8.30
2022-12-19T07:26:34.284Z,7.25
2022-12-19T07:27:38.010Z,7.05
2022-12-19T07:28:41.249Z,5.78
2022-12-19T07:29:44.292Z,6.00
2022-12-19T07:30:46.439Z,9.40
2022-12-19T07:31:49.474Z,8.02
2022-12-19T07:32:52.535Z,10.93
2022-12-19T07:33:54.983Z,10.23
2022-12-19T07:34:58.019Z,13.68
2022-12-19T07:36:01.058Z,13.50
2022-12-19T07:37:03.124Z,12.98
2022-12-19T07:38:08.165Z,11.52
2022-12-19T07:39:11.422Z,10.50
2022-12-19T07:40:13.567Z,12.82
2022-12-19T07:41:16.605Z,13.35
2022-12-19T07:42:20.295Z,13.10
2022-12-19T07:43:23.341Z,12.48
2022-12-19T07:44:25.411Z,12.23
2022-12-19T07:45:28.883Z,12.95
2022-12-19T07:46:30.983Z,13.65
2022-12-19T07:47:34.218Z,13.38
2022-12-19T07:48:37.334Z,12.48
2022-12-19T07:49:40.458Z,13.27
2022-12-19T07:50:42.648Z,14.02
2022-12-19T07:51:45.703Z,16.05
2022-12-19T07:52:47.918Z,14.30
2022-12-19T07:53:50.982Z,14.60
2022-12-19T07:54:53.100Z,15.52
2022-12-19T07:55:56.219Z,16.30
2022-12-19T07:56:58.291Z,15.48
2022-12-19T07:58:02.912Z,16.25
2022-12-19T07:59:05.052Z,14.93
2022-12-19T08:00:09.449Z,15.82
2022-12-19T08:01:15.979Z,16.45
2022-12-19T08:02:19.333Z,16.58
2022-12-19T08:03:22.000Z,15.82
2022-12-19T08:04:25.274Z,14.43
2022-12-19T08:05:27.397Z,14.20
2022-12-19T08:06:30.509Z,13.93
2022-12-19T08:07:33.652Z,11.35
2022-12-19T08:08:37.681Z,11.07
2022-12-19T08:09:40.764Z,9.52
2022-12-19T08:10:42.879Z,9.50
2022-12-19T08:11:46.017Z,6.40
2022-12-19T08:12:49.175Z,6.25
2022-12-19T08:13:53.925Z,5.47
2022-12-19T08:14:57.496Z,5.75
2022-12-19T08:16:01.392Z,4.47
2022-12-19T08:17:20.326Z,4.47
2022-12-19T08:18:23.847Z,4.18
2022-12-19T08:19:27.577Z,3.88
2022-12-19T08:20:31.007Z,4.27
2022-12-19T08:21:33.144Z,4.35
2022-12-19T08:22:36.582Z,3.88
2022-12-19T08:23:39.677Z,3.87
2022-12-19T08:24:41.757Z,4.00
2022-12-19T08:25:44.871Z,3.40
2022-12-19T08:26:48.056Z,3.58
2022-12-19T08:27:51.157Z,3.50
2022-12-19T08:28:57.813Z,3.40
2022-12-19T08:30:00.867Z,3.50
2022-12-19T08:31:07.871Z,3.85
2022-12-19T08:32:10.568Z,3.70
2022-12-19T08:33:15.359Z,4.03
2022-12-19T08:34:17.498Z,3.67
2022-12-19T08:35:20.584Z,3.73
2022-12-19T08:36:24.418Z,3.77
2022-12-19T08:37:28.145Z,3.67
2022-12-19T08:38:30.233Z,3.50
2022-12-19T08:39:33.316Z,4.03
2022-12-19T08:40:36.321Z,3.57
2022-12-19T08:41:39.385Z,3.93
2022-12-19T08:42:42.602Z,3.90
2022-12-19T08:43:49.369Z,4.00
2022-12-19T08:44:53.785Z,3.50
2022-12-19T08:45:56.987Z,3.70
2022-12-19T08:46:59.098Z,3.53
2022-12-19T08:48:02.177Z,3.00
2022-12-19T08:49:04.389Z,4.10
2022-12-19T08:50:08.369Z,3.50
2022-12-19T08:51:13.296Z,3.20
2022-12-19T08:52:18.036Z,3.07
2022-12-19T08:53:26.253Z,3.20
2022-12-19T08:54:29.634Z,3.17
2022-12-19T08:55:32.781Z,3.60
2022-12-19T08:56:35.520Z,3.10
2022-12-19T08:57:38.573Z,2.97
2022-12-19T08:58:41.810Z,3.27
2022-12-19T08:59:44.835Z,3.40
2022-12-19T09:00:55.515Z,2.90
2022-12-19T09:02:01.672Z,3.10
2022-12-19T09:03:05.513Z,3.50
2022-12-19T09:05:15.352Z,3.27
2022-12-19T09:06:02.562Z,3.53
2022-12-19T09:06:55.036Z,2.80
2022-12-19T09:07:58.119Z,3.23
2022-12-19T09:09:01.191Z,3.43
2022-12-19T09:10:04.403Z,3.37
2022-12-19T09:11:09.249Z,3.30
2022-12-19T09:12:13.372Z,3.23
2022-12-19T09:13:16.387Z,2.77
2022-12-19T09:14:21.188Z,2.90
2022-12-19T09:15:24.858Z,3.23
2022-12-19T09:16:30.541Z,3.13
2022-12-19T09:17:33.599Z,2.63
2022-12-19T09:18:36.027Z,2.80
2022-12-19T09:19:39.132Z,2.87
2022-12-19T09:20:44.622Z,2.83
2022-12-19T09:21:47.659Z,2.90
2022-12-19T09:22:50.734Z,3.00
2022-12-19T09:23:55.449Z,3.17
2022-12-19T09:24:58.512Z,3.17
2022-12-19T09:26:03.758Z,3.27
2022-12-19T09:27:06.831Z,3.10
2022-12-19T09:29:35.248Z,2.60
2022-12-19T09:30:38.977Z,2.63
2022-12-19T09:31:43.455Z,2.57
2022-12-19T09:32:47.449Z,2.83
2022-12-19T09:33:50.571Z,2.63
2022-12-19T09:34:53.583Z,3.03
2022-12-19T09:35:57.609Z,3.07
2022-12-19T09:37:00.659Z,3.00
2022-12-19T09:38:03.937Z,2.60
2022-12-19T09:39:06.989Z,3.00
2022-12-19T09:40:16.815Z,3.40
2022-12-19T09:41:45.231Z,2.77
2022-12-19T09:43:03.574Z,2.93
2022-12-19T09:44:16.566Z,2.37
2022-12-19T09:45:32.981Z,2.73
2022-12-19T09:46:45.143Z,2.70
2022-12-19T09:47:50.902Z,3.13
2022-12-19T09:48:57.045Z,2.77
2022-12-19T09:50:01.847Z,3.10
2022-12-19T09:51:11.131Z,3.47
2022-12-19T09:52:17.789Z,3.40
2022-12-19T09:53:25.798Z,3.13
2022-12-19T09:54:35.130Z,3.03
2022-12-19T09:55:42.350Z,3.67
2022-12-19T09:56:46.901Z,3.33
2022-12-19T09:57:56.510Z,3.70
2022-12-19T09:59:04.826Z,3.23
2022-12-19T10:00:13.688Z,3.00
2022-12-19T10:01:20.467Z,2.90
2022-12-19T10:02:38.445Z,3.33
2022-12-19T10:03:46.412Z,3.40
2022-12-19T10:04:51.762Z,2.90
2022-12-19T10:07:16.110Z,3.40
2022-12-19T10:08:07.090Z,3.70
2022-12-19T10:10:48.721Z,3.50
2022-12-19T10:12:38.460Z,3.50
2022-12-19T10:12:45.398Z,3.70
2022-12-19T10:14:05.731Z,3.60
2022-12-19T10:15:16.251Z,3.27
2022-12-19T10:16:29.685Z,3.40
2022-12-19T10:17:57.113Z,3.47
2022-12-19T10:19:04.023Z,3.10
2022-12-19T10:20:19.247Z,3.60
2022-12-19T10:21:59.093Z,3.07
2022-12-19T10:23:06.708Z,3.83
2022-12-19T10:24:33.192Z,3.50
2022-12-19T10:25:58.329Z,3.70
2022-12-19T10:27:05.595Z,3.40
2022-12-19T10:28:26.162Z,3.40
2022-12-19T10:29:52.587Z,3.53
2022-12-19T10:31:14.072Z,3.50
2022-12-19T10:32:28.656Z,3.70
2022-12-19T10:33:38.891Z,3.77
2022-12-19T10:34:45.302Z,4.10
2022-12-19T10:35:54.057Z,3.80
2022-12-19T10:37:26.805Z,4.03
2022-12-19T10:38:32.073Z,3.10
2022-12-19T10:39:49.059Z,3.60
2022-12-19T10:40:59.098Z,4.10
2022-12-19T10:42:12.082Z,4.03
2022-12-19T10:43:32.888Z,3.60
2022-12-19T10:44:40.952Z,4.23
2022-12-19T10:45:47.458Z,3.80
2022-12-19T10:46:51.528Z,3.90
2022-12-19T10:47:58.334Z,4.17
2022-12-19T10:49:02.039Z,4.37
2022-12-19T10:50:09.659Z,4.30
2022-12-19T10:51:14.632Z,4.30
2022-12-19T10:52:55.089Z,3.80
2022-12-19T10:54:01.309Z,4.37
2022-12-19T10:55:21.392Z,3.90
2022-12-19T10:56:33.162Z,3.67
2022-12-19T10:57:40.177Z,3.87
2022-12-19T10:58:46.409Z,4.43
2022-12-19T10:59:57.796Z,4.73
2022-12-19T11:01:06.037Z,3.63
2022-12-19T11:02:35.607Z,3.80
2022-12-19T11:03:41.695Z,3.97
2022-12-19T11:04:49.123Z,3.47
2022-12-19T11:05:57.610Z,3.57
2022-12-19T11:07:20.070Z,4.03
2022-12-19T11:08:26.980Z,3.63
2022-12-19T11:09:31.978Z,3.93
2022-12-19T11:11:00.503Z,3.40
2022-12-19T11:15:58.832Z,4.30
2022-12-19T11:19:04.677Z,4.20
2022-12-19T11:19:13.417Z,3.73
2022-12-19T11:20:27.354Z,4.10
2022-12-19T11:25:46.658Z,4.60
2022-12-19T11:29:17.679Z,3.87
2022-12-19T11:29:31.660Z,3.47
2022-12-19T11:29:37.372Z,3.67
2022-12-19T11:29:37.481Z,3.67
2022-12-19T11:29:38.522Z,4.00
2022-12-19T11:30:09.730Z,4.00
2022-12-19T11:30:38.165Z,3.60
2022-12-19T11:32:42.859Z,3.53
2022-12-19T11:33:48.349Z,3.10
2022-12-19T11:34:50.933Z,3.70
2022-12-19T11:35:55.946Z,3.10
2022-12-19T11:37:04.522Z,3.70
2022-12-19T11:38:11.410Z,3.87
2022-12-19T11:39:23.249Z,3.60
2022-12-19T11:40:34.113Z,3.73
2022-12-19T11:41:42.469Z,4.07
2022-12-19T11:43:11.014Z,3.97
2022-12-19T11:44:27.329Z,3.10
2022-12-19T11:45:40.434Z,3.40
2022-12-19T11:46:50.705Z,3.47
2022-12-19T11:47:59.971Z,3.50
2022-12-19T11:49:08.839Z,3.17
2022-12-19T11:50:16.448Z,3.33
2022-12-19T11:51:23.055Z,3.10
2022-12-19T11:53:03.323Z,3.27
2022-12-19T11:54:07.505Z,3.67
2022-12-19T11:55:19.908Z,3.33
2022-12-19T11:56:27.778Z,3.90
2022-12-19T11:57:30.869Z,3.73
2022-12-19T11:58:33.461Z,3.90
2022-12-19T11:59:38.919Z,3.60
2022-12-19T12:00:48.980Z,3.60
2022-12-19T12:02:19.036Z,3.77
2022-12-19T12:04:01.986Z,3.67
2022-12-19T12:05:17.188Z,3.73
2022-12-19T12:06:29.560Z,4.20
2022-12-19T12:08:00.177Z,4.33
2022-12-19T12:12:50.077Z,3.57
2022-12-19T12:16:44.919Z,3.33
2022-12-19T12:17:53.199Z,3.10
2022-12-19T12:23:35.978Z,4.00
2022-12-19T12:24:56.050Z,3.57
2022-12-19T12:25:53.273Z,4.10
2022-12-19T12:31:04.395Z,4.17
2022-12-19T12:31:09.105Z,3.57
2022-12-19T12:31:10.966Z,4.43
2022-12-19T12:31:12.278Z,3.23
2022-12-19T12:31:39.144Z,3.40
2022-12-19T12:31:45.500Z,3.47
2022-12-19T12:31:46.583Z,4.23
2022-12-19T12:31:52.226Z,3.30
2022-12-19T12:32:04.206Z,3.97
2022-12-19T12:35:51.343Z,3.50
2022-12-19T12:35:52.125Z,3.97
2022-12-19T12:38:38.928Z,3.30
2022-12-19T12:39:50.994Z,3.03
2022-12-19T12:41:03.370Z,3.63
2022-12-19T12:42:16.629Z,3.57
2022-12-19T12:43:36.950Z,3.63
2022-12-19T12:44:45.885Z,3.53
2022-12-19T12:45:48.580Z,3.63
2022-12-19T12:47:00.575Z,4.10
2022-12-19T12:48:07.103Z,4.23
2022-12-19T12:49:29.757Z,4.97
2022-12-19T12:50:34.856Z,4.63
2022-12-19T12:51:38.446Z,4.40
2022-12-19T12:52:44.368Z,4.50
2022-12-19T12:53:49.309Z,4.23
2022-12-19T12:54:52.762Z,4.20
2022-12-19T12:55:56.434Z,4.27
2022-12-19T12:56:59.492Z,4.93
2022-12-19T12:58:04.709Z,4.20
2022-12-19T12:59:25.270Z,4.90
2022-12-19T13:00:30.077Z,4.33
2022-12-19T13:01:35.931Z,4.63
2022-12-19T13:02:39.360Z,4.13
2022-12-19T13:03:43.586Z,4.20
2022-12-19T13:04:58.049Z,3.80
2022-12-19T13:06:07.972Z,4.37
2022-12-19T13:07:20.755Z,4.40
2022-12-19T13:08:38.026Z,4.17
2022-12-19T13:09:40.900Z,4.23
2022-12-19T13:10:55.372Z,3.80
2022-12-19T13:12:21.429Z,4.20
2022-12-19T13:13:51.379Z,4.10
2022-12-19T13:14:53.518Z,4.00
2022-12-19T13:15:56.602Z,4.40
2022-12-19T13:16:58.749Z,4.67
2022-12-19T13:18:14.484Z,4.60
2022-12-19T13:19:25.854Z,4.73
2022-12-19T13:20:44.549Z,4.63
2022-12-19T13:22:17.092Z,5.07
2022-12-19T13:23:34.832Z,4.80
2022-12-19T13:24:40.751Z,4.70
2022-12-19T13:25:52.572Z,4.43
2022-12-19T13:26:55.650Z,4.57
2022-12-19T13:28:00.200Z,4.33
2022-12-19T13:29:35.938Z,4.23
2022-12-19T13:31:22.795Z,4.20
2022-12-19T13:32:27.635Z,4.53
2022-12-19T13:33:46.146Z,4.60
2022-12-19T13:35:19.072Z,3.97
2022-12-19T13:39:48.760Z,3.97
2022-12-19T13:39:52.070Z,4.73
2022-12-19T13:40:10.981Z,4.00
2022-12-19T13:41:46.627Z,4.20
2022-12-19T13:43:20.165Z,4.07
2022-12-19T13:44:23.722Z,4.20
2022-12-19T13:45:31.461Z,4.30
2022-12-19T13:46:42.490Z,4.70
2022-12-19T13:47:47.456Z,4.83
2022-12-19T13:48:53.521Z,4.70
2022-12-19T13:49:58.155Z,4.37
2022-12-19T13:51:06.333Z,4.77
2022-12-19T13:52:14.266Z,4.37
2022-12-19T13:53:18.521Z,5.23
2022-12-19T13:54:23.947Z,4.77
2022-12-19T13:55:29.705Z,5.50
2022-12-19T13:56:32.809Z,4.77
2022-12-19T13:57:39.667Z,4.60
2022-12-19T13:58:49.533Z,4.83
2022-12-19T13:59:59.710Z,4.60
2022-12-19T14:01:20.835Z,4.33
2022-12-19T14:02:30.101Z,4.27
2022-12-19T14:03:38.158Z,4.90
2022-12-19T14:04:41.912Z,4.50
2022-12-19T14:06:16.057Z,4.40
2022-12-19T14:07:36.005Z,3.97
2022-12-19T14:08:40.843Z,4.37
2022-12-19T14:11:27.109Z,4.33
2022-12-19T14:11:45.317Z,4.47
2022-12-19T14:13:54.109Z,4.53
2022-12-19T14:14:38.729Z,4.17
2022-12-19T14:15:45.702Z,4.43
2022-12-19T14:17:07.459Z,3.83
2022-12-19T14:18:42.857Z,4.30
2022-12-19T14:19:45.568Z,3.83
2022-12-19T14:22:06.035Z,4.20
2022-12-19T14:22:20.757Z,3.90
2022-12-19T14:23:43.127Z,4.33
2022-12-19T14:24:55.048Z,3.87
2022-12-19T14:28:16.787Z,3.87
2022-12-19T14:28:18.955Z,3.60
2022-12-19T14:30:02.214Z,4.30
2022-12-19T14:30:50.021Z,4.60
2022-12-19T14:32:00.094Z,4.20
2022-12-19T14:33:45.853Z,4.13
2022-12-19T14:35:23.732Z,3.47
2022-12-19T14:36:16.358Z,4.47
2022-12-19T14:39:18.178Z,3.83
2022-12-19T14:39:22.991Z,3.33
2022-12-19T14:40:24.228Z,3.60
2022-12-19T14:42:01.848Z,3.67
2022-12-19T14:43:59.600Z,3.90
2022-12-19T14:52:08.495Z,3.23
2022-12-19T14:53:51.455Z,3.37
2022-12-19T14:53:52.032Z,3.17
2022-12-19T14:54:13.739Z,4.10
2022-12-19T14:54:16.119Z,3.37
2022-12-19T14:54:23.271Z,3.30
2022-12-19T14:56:03.726Z,3.47
2022-12-19T14:57:05.661Z,3.40
2022-12-19T14:58:52.379Z,3.50
2022-12-19T14:59:35.786Z,4.63
2022-12-19T15:01:08.984Z,3.40
2022-12-19T15:02:27.680Z,3.60
2022-12-19T15:03:52.065Z,4.37
2022-12-19T15:05:16.906Z,5.30
2022-12-19T15:07:07.655Z,5.23
2022-12-19T15:07:50.311Z,4.50
2022-12-19T15:10:57.273Z,3.97
2022-12-19T15:11:06.146Z,5.17
2022-12-19T15:14:03.946Z,4.13
2022-12-19T15:14:49.362Z,3.80
2022-12-19T15:15:04.631Z,3.23
2022-12-19T15:16:08.235Z,3.57
2022-12-19T15:17:21.631Z,3.20
2022-12-19T15:18:27.375Z,3.70
2022-12-19T15:19:30.437Z,3.77
2022-12-19T15:20:33.893Z,3.63
2022-12-19T15:21:36.954Z,3.77
2022-12-19T15:22:39.075Z,3.27
2022-12-19T15:23:44.849Z,3.57
2022-12-19T15:24:47.953Z,3.67
2022-12-19T15:26:07.918Z,3.57
2022-12-19T15:27:14.917Z,3.57